Thunder radar more information blitzortung!


Löydät sääaseman tiedot myös:

European Weather Network

Finland Weather Exchange

Weather Underground

AWEKAS



Weather Underground säähistoriasivu

Päivittäin yhteenveto Maaliskuu 17, 2017 Yksiköt:  Englantilaiset    Metriset   Molemmat
« Edellinen Päivä
Seuraava Päivä »
Päivittäin Viikoittain Kuukausittain Vuosittain Mukautettu
  Korkea: Matala: Keskiarvo:
Lämpötila: TemperatureC °F 0.6 °F 2.6 °F
Kastepiste: DewpointC °F -2.4 °F 1.4 °F
Kosteus: Humidity % 66 % 90 %
Tuulen nopeus: WindSpeedKMH mph 1.6 mph 6.6 mph
Tuulenpuuska: WindSpeedGustKMH mph - -
Tuuli:- - SSW
Ilmanpaine: PressurehPa in 980.6 in -
Sade: 0.0 in    
Historical Graphs
 
 
Taulukkotiedot Maaliskuu 17, 2017
Aika Lämpötila Kastepiste Ilmanpaine Tuuli Tuulen nopeus Tuulenpuuska Kosteus Sademäärä (tunneittain)
TemperatureC °F DewpointC °F PressurehPa in Calm     Humidity % HourlyPrecipMM in
00:00 3.4 °F -2.4 °F 995.5 in South 4.8 mph 14.5 mph 66 % 0.0 in
00:15 3.6 °F -2.2 °F 995.1 in SSW 4.8 mph 14.5 mph 66 % 0.0 in
00:30 3.7 °F -2.0 °F 994.5 in South 6.4 mph 14.5 mph 66 % 0.0 in
00:45 3.6 °F -2.0 °F 994.1 in South 6.4 mph 19.3 mph 67 % 0.0 in
01:00 2.7 °F -0.3 °F 993.8 in SSW 11.3 mph 32.2 mph 81 % 0.0 in
01:15 1.8 °F 0.1 °F 993.5 in SSW 11.3 mph 29.0 mph 88 % 0.0 in
01:30 1.3 °F 0.0 °F 993.1 in SSW 11.3 mph 35.4 mph 91 % 0.0 in
01:45 1.3 °F 0.3 °F 992.4 in SSW 8.0 mph 17.7 mph 93 % 0.0 in
02:00 1.5 °F 0.6 °F 992.1 in SSW 8.0 mph 20.9 mph 94 % 0.0 in
02:15 1.8 °F 0.9 °F 991.8 in SSW 8.0 mph 17.7 mph 94 % 0.0 in
02:30 1.9 °F 1.1 °F 991.4 in SSW 8.0 mph 25.7 mph 94 % 0.0 in
02:45 1.9 °F 1.0 °F 990.7 in SSW 9.7 mph 29.0 mph 94 % 0.0 in
03:00 1.8 °F 1.0 °F 990.4 in SSW 9.7 mph 22.5 mph 94 % 0.0 in
03:15 1.9 °F 1.2 °F 990.1 in SSW 11.3 mph 25.7 mph 95 % 0.0 in
03:30 1.8 °F 1.0 °F 989.7 in SSW 9.7 mph 29.0 mph 94 % 0.0 in
03:45 1.8 °F 1.1 °F 989.1 in SSW 11.3 mph 24.1 mph 95 % 0.0 in
04:00 1.9 °F 1.2 °F 988.7 in SSW 9.7 mph 19.3 mph 95 % 0.0 in
04:15 2.1 °F 1.4 °F 988.0 in SSW 8.0 mph 29.0 mph 95 % 0.0 in
04:30 2.3 °F 1.6 °F 987.7 in SSW 9.7 mph 20.9 mph 95 % 0.0 in
04:45 2.5 °F 1.9 °F 987.4 in SSW 8.0 mph 16.1 mph 96 % 0.0 in
05:15 2.8 °F 2.2 °F 986.7 in SSW 8.0 mph 19.3 mph 96 % 0.0 in
05:30 2.8 °F 2.3 °F 986.3 in South 8.0 mph 20.9 mph 96 % 0.0 in
05:45 2.9 °F 2.3 °F 986.0 in South 9.7 mph 22.5 mph 96 % 0.0 in
06:00 3.0 °F 2.4 °F 985.7 in SSW 9.7 mph 22.5 mph 96 % 0.0 in
06:15 2.9 °F 2.3 °F 985.3 in SSW 9.7 mph 19.3 mph 96 % 0.0 in
06:30 2.8 °F 2.1 °F 985.0 in South 9.7 mph 17.7 mph 95 % 0.0 in
06:45 2.8 °F 2.3 °F 984.6 in South 8.0 mph 22.5 mph 96 % 0.0 in
07:00 2.9 °F 2.3 °F 984.3 in SSW 4.8 mph 12.9 mph 96 % 0.0 in
07:15 3.0 °F 2.4 °F 984.3 in SSW 6.4 mph 22.5 mph 96 % 0.0 in
07:30 3.1 °F 2.5 °F 984.0 in SSW 6.4 mph 16.1 mph 96 % 0.0 in
07:45 3.2 °F 2.6 °F 983.6 in SSW 6.4 mph 14.5 mph 96 % 0.0 in
08:00 3.3 °F 2.8 °F 983.3 in SSW 4.8 mph 12.9 mph 96 % 0.0 in
08:15 3.5 °F 3.1 °F 983.3 in SSW 4.8 mph 16.1 mph 97 % 0.0 in
08:30 3.7 °F 3.3 °F 983.0 in SSW 6.4 mph 16.1 mph 97 % 0.0 in
08:45 3.8 °F 3.4 °F 982.6 in SSW 8.0 mph 20.9 mph 97 % 0.0 in
09:00 3.9 °F 3.3 °F 982.3 in SSW 8.0 mph 17.7 mph 96 % 0.0 in
09:15 3.9 °F 3.4 °F 982.3 in SSW 8.0 mph 22.5 mph 96 % 0.0 in
09:30 3.8 °F 3.3 °F 981.9 in SSW 8.0 mph 30.6 mph 96 % 0.0 in
09:45 3.8 °F 3.2 °F 981.9 in SSW 6.4 mph 16.1 mph 96 % 0.0 in
10:00 3.8 °F 3.2 °F 981.6 in SSW 6.4 mph 12.9 mph 96 % 0.0 in
10:15 3.7 °F 3.1 °F 981.3 in SSW 8.0 mph 20.9 mph 96 % 0.0 in
10:30 3.7 °F 3.1 °F 981.3 in South 6.4 mph 16.1 mph 96 % 0.0 in
10:45 3.6 °F 3.0 °F 981.3 in SSW 8.0 mph 17.7 mph 96 % 0.0 in
11:00 3.4 °F 2.8 °F 981.3 in SSW 6.4 mph 19.3 mph 96 % 0.0 in
11:15 3.3 °F 2.7 °F 981.3 in SSW 8.0 mph 17.7 mph 96 % 0.0 in
11:30 3.1 °F 2.5 °F 981.3 in SSW 8.0 mph 16.1 mph 96 % 0.0 in
11:45 2.8 °F 2.3 °F 980.9 in SSW 6.4 mph 17.7 mph 96 % 0.0 in
12:00 2.6 °F 1.8 °F 981.3 in SSW 8.0 mph 16.1 mph 95 % 0.0 in
12:15 2.4 °F 1.7 °F 981.3 in SSW 6.4 mph 16.1 mph 95 % 0.0 in
12:30 2.5 °F 1.9 °F 980.9 in SSW 4.8 mph 12.9 mph 96 % 0.0 in
12:45 2.7 °F 2.1 °F 980.9 in SSW 4.8 mph 11.3 mph 96 % 0.0 in
13:00 2.8 °F 2.3 °F 980.6 in SSW 3.2 mph 9.7 mph 96 % 0.0 in
13:15 3.2 °F 2.6 °F 980.9 in SSW 6.4 mph 16.1 mph 96 % 0.0 in
13:30 3.2 °F 2.6 °F 980.9 in SSW 4.8 mph 14.5 mph 96 % 0.0 in
13:45 3.1 °F 2.5 °F 980.9 in SSW 8.0 mph 24.1 mph 96 % 0.0 in
14:00 3.1 °F 2.3 °F 980.9 in SSW 8.0 mph 17.7 mph 95 % 0.0 in
14:15 3.1 °F 2.3 °F 980.6 in SSW 6.4 mph 16.1 mph 95 % 0.0 in
14:30 3.8 °F 3.2 °F 980.6 in SSW 4.8 mph 16.1 mph 96 % 0.0 in
14:45 3.7 °F 2.8 °F 980.6 in SSW 6.4 mph 12.9 mph 94 % 0.0 in
15:00 3.9 °F 3.0 °F 980.6 in SSW 6.4 mph 14.5 mph 94 % 0.0 in
15:15 3.9 °F 2.9 °F 980.9 in SSW 6.4 mph 16.1 mph 93 % 0.0 in
15:30 3.7 °F 2.5 °F 980.9 in SSW 8.0 mph 17.7 mph 92 % 0.0 in
15:45 3.6 °F 2.6 °F 980.9 in SSW 8.0 mph 22.5 mph 93 % 0.0 in
16:00 3.7 °F 2.6 °F 980.9 in SSW 6.4 mph 12.9 mph 93 % 0.0 in
16:15 3.7 °F 2.6 °F 980.9 in SSW 6.4 mph 17.7 mph 93 % 0.0 in
16:30 3.9 °F 2.7 °F 980.9 in SSW 6.4 mph 14.5 mph 92 % 0.0 in
16:45 3.8 °F 2.3 °F 980.9 in SSW 8.0 mph 16.1 mph 90 % 0.0 in
17:00 3.8 °F 2.0 °F 980.9 in SSW 8.0 mph 17.7 mph 88 % 0.0 in
17:15 3.7 °F 1.7 °F 980.9 in SSW 6.4 mph 17.7 mph 87 % 0.0 in
17:30 3.6 °F 1.6 °F 980.9 in SSW 6.4 mph 12.9 mph 87 % 0.0 in
17:45 3.5 °F 1.2 °F 980.9 in SSW 6.4 mph 16.1 mph 85 % 0.0 in
18:00 3.3 °F 0.9 °F 980.9 in SSW 8.0 mph 22.5 mph 84 % 0.0 in
18:15 3.1 °F 0.8 °F 980.9 in SSW 6.4 mph 14.5 mph 85 % 0.0 in
18:30 2.8 °F 0.6 °F 980.9 in SSW 6.4 mph 12.9 mph 85 % 0.0 in
18:45 2.6 °F 0.5 °F 980.9 in SSW 3.2 mph 11.3 mph 86 % 0.0 in
19:00 2.5 °F 0.2 °F 980.9 in SSW 8.0 mph 17.7 mph 85 % 0.0 in
19:15 2.3 °F 0.2 °F 981.3 in SSW 4.8 mph 16.1 mph 86 % 0.0 in
19:30 2.1 °F 0.1 °F 981.3 in SSW 4.8 mph 12.9 mph 87 % 0.0 in
19:45 1.9 °F 0.0 °F 981.3 in SSW 4.8 mph 14.5 mph 87 % 0.0 in
20:00 1.9 °F 0.0 °F 981.3 in SSW 4.8 mph 16.1 mph 87 % 0.0 in
20:30 1.6 °F -0.3 °F 980.9 in SSW 4.8 mph 14.5 mph 87 % 0.0 in
20:45 1.5 °F -0.4 °F 980.9 in SSW 4.8 mph 12.9 mph 87 % 0.0 in
21:00 1.3 °F -0.6 °F 980.9 in SSW 3.2 mph 9.7 mph 87 % 0.0 in
21:15 1.1 °F -0.7 °F 980.9 in SSW 1.6 mph 8.0 mph 88 % 0.0 in
21:30 0.9 °F -0.7 °F 980.9 in SSW 3.2 mph 9.7 mph 89 % 0.0 in
21:45 0.9 °F -0.7 °F 980.9 in SSW 4.8 mph 11.3 mph 89 % 0.0 in
22:00 1.0 °F -0.6 °F 980.9 in SSW 4.8 mph 16.1 mph 89 % 0.0 in
22:15 0.9 °F -0.8 °F 980.9 in South 3.2 mph 9.7 mph 88 % 0.0 in
22:30 0.9 °F -0.7 °F 980.9 in SSW 3.2 mph 9.7 mph 89 % 0.0 in
22:45 0.8 °F -0.8 °F 980.9 in SSW 3.2 mph 11.3 mph 89 % 0.0 in
23:00 0.9 °F -0.7 °F 980.9 in SSW 4.8 mph 11.3 mph 89 % 0.0 in
23:15 0.8 °F -0.8 °F 980.9 in SSW 3.2 mph 14.5 mph 89 % 0.0 in
23:30 0.7 °F -0.9 °F 980.6 in South 1.6 mph 8.0 mph 89 % 0.0 in
23:45 0.6 °F -1.0 °F 980.6 in SSW 1.6 mph 4.8 mph 89 % 0.0 in
Esan sääasema
Terveisin Weather Underground - 2.75 mb

Alkuperäinen skripti  Jim McMurry - jmcmurry@mwt.net Sovitettu myös templatelle  Wim van der Kuil - Leuven-Template.eu

Laitteet joita käytämme:

Sääasema
Davis VP2

Sääasemaohjelma
Cumulus

Sääaseman tietokone
Asus EeePC

Palveluntarjoaja
Suncomet

Davis VP2

Cumulus

Asus EeePC

Suncomet